Time;durP1;ratioP1;P1;durP2;ratioP2;P2;SDS_P1;SDS_P2;PMS_P1;PMS_P2;Temp;Humidity;BMP_temperature;BMP_pressure;BME280_temperature;BME280_humidity;BME280_pressure;Samples;Min_cycle;Max_cycle;Signal;HPM_P1;HPM_P2
2022/01/10 10:12:52;;;;;;;31.80;27.20;;;4.70;99.90;;;;;;5086985;27;20685;-72
2022/01/10 10:15:22;;;;;;;29.67;26.93;;;6.10;99.90;;;;;;5087082;28;20466;-72
2022/01/10 10:17:49;;;;;;;30.67;27.70;;;6.00;99.90;;;;;;5086901;28;20453;-71
2022/01/10 10:20:20;;;;;;;29.00;26.03;;;6.40;99.90;;;;;;5086785;28;20510;-71
2022/01/10 10:22:49;;;;;;;29.10;26.40;;;6.70;99.90;;;;;;5088124;28;20556;-70
2022/01/10 10:25:17;;;;;;;29.17;26.67;;;6.90;99.90;;;;;;5097145;28;20442;-71
2022/01/10 10:27:46;;;;;;;29.53;26.90;;;7.30;99.90;;;;;;5090830;28;20444;-71
2022/01/10 10:30:16;;;;;;;27.07;24.47;;;7.30;99.90;;;;;;5086388;28;20430;-72
2022/01/10 10:32:43;;;;;;;29.07;26.30;;;7.40;99.90;;;;;;5086631;28;20438;-72
2022/01/10 10:35:11;;;;;;;25.03;22.80;;;7.60;99.90;;;;;;5087630;28;20819;-72
2022/01/10 10:37:38;;;;;;;24.80;22.57;;;7.60;99.90;;;;;;5086431;28;20442;-71
2022/01/10 10:40:09;;;;;;;24.90;23.00;;;7.50;99.90;;;;;;5086575;28;20453;-72
2022/01/10 10:42:39;;;;;;;24.73;22.73;;;7.50;99.90;;;;;;5086447;28;20457;-72
2022/01/10 10:45:07;;;;;;;23.73;21.67;;;7.20;99.90;;;;;;5086303;28;20548;-72
2022/01/10 10:47:37;;;;;;;23.67;21.67;;;7.10;99.90;;;;;;5086269;28;20809;-72
2022/01/10 10:50:06;;;;;;;23.60;21.67;;;7.00;99.90;;;;;;5086469;28;20541;-71
2022/01/10 10:52:34;;;;;;;22.93;20.83;;;7.00;99.90;;;;;;5086146;28;20496;-71
2022/01/10 10:55:07;;;;;;;21.50;19.80;;;7.30;99.90;;;;;;5085938;28;20945;-71
2022/01/10 10:57:34;;;;;;;21.33;19.83;;;7.20;99.90;;;;;;5086207;28;20461;-72
2022/01/10 11:00:05;;;;;;;24.30;22.00;;;7.10;99.90;;;;;;5085903;28;20498;-72
2022/01/10 11:02:32;;;;;;;23.10;20.83;;;6.90;99.90;;;;;;5085913;28;20473;-71
2022/01/10 11:05:03;;;;;;;23.20;21.30;;;7.00;99.90;;;;;;5085528;28;20991;-72
2022/01/10 11:07:33;;;;;;;22.33;20.13;;;7.40;99.90;;;;;;5085668;28;20454;-72
2022/01/10 11:10:01;;;;;;;21.13;19.23;;;7.70;99.90;;;;;;5085536;28;20453;-72
2022/01/10 11:12:29;;;;;;;22.00;20.23;;;8.30;99.90;;;;;;5079245;28;20490;-72
2022/01/10 11:14:59;;;;;;;21.80;20.00;;;8.70;99.90;;;;;;5071951;28;20647;-71
2022/01/10 11:17:26;;;;;;;23.27;21.20;;;8.60;99.90;;;;;;5072151;28;20513;-72
2022/01/10 11:20:11;;;;;;;20.73;19.10;;;8.80;99.90;;;;;;5072231;28;20455;-72
2022/01/10 11:22:39;;;;;;;22.57;19.57;;;9.00;99.90;;;;;;5071846;28;20938;-72
2022/01/10 11:25:20;;;;;;;22.23;20.13;;;8.90;99.90;;;;;;5071963;28;20447;-71
2022/01/10 11:27:48;;;;;;;20.77;19.10;;;9.10;99.90;;;;;;5071898;28;20505;-72
2022/01/10 11:30:31;;;;;;;19.83;18.40;;;9.10;99.90;;;;;;5071628;28;20457;-72
2022/01/10 11:33:02;;;;;;;20.47;18.67;;;10.40;99.90;;;;;;5071647;28;20490;-72
2022/01/10 11:35:32;;;;;;;21.30;19.47;;;12.00;99.90;;;;;;5071704;28;20547;-72
2022/01/10 11:38:00;;;;;;;19.50;18.30;;;13.20;99.90;;;;;;5071753;28;20465;-73
2022/01/10 11:40:27;;;;;;;19.63;17.70;;;13.20;99.90;;;;;;5071525;28;21004;-72
2022/01/10 11:42:56;;;;;;;20.00;18.30;;;13.60;99.90;;;;;;5071446;28;20824;-73
2022/01/10 11:45:23;;;;;;;20.10;18.70;;;13.60;97.90;;;;;;5071480;28;20465;-71
2022/01/10 11:48:14;;;;;;;23.23;21.40;;;12.60;99.80;;;;;;5071641;28;20447;-71
2022/01/10 11:50:45;;;;;;;20.60;19.17;;;11.20;99.90;;;;;;5071284;28;20668;-72
2022/01/10 11:53:13;;;;;;;21.70;20.07;;;10.40;99.90;;;;;;5071346;28;20450;-72
2022/01/10 11:55:52;;;;;;;22.37;20.53;;;10.00;99.90;;;;;;5071402;28;21003;-73
2022/01/10 11:58:20;;;;;;;23.27;21.33;;;9.60;99.90;;;;;;5071683;28;20457;-72
2022/01/10 12:00:48;;;;;;;20.53;19.03;;;9.50;99.90;;;;;;5071761;28;20450;-72
2022/01/10 12:03:14;;;;;;;23.97;20.97;;;9.20;99.90;;;;;;5071045;28;20471;-72
2022/01/10 12:05:42;;;;;;;21.03;19.10;;;9.00;99.90;;;;;;5071000;28;20452;-72
2022/01/10 12:08:09;;;;;;;22.17;19.97;;;9.10;99.90;;;;;;5070951;28;20447;-72
2022/01/10 12:10:36;;;;;;;22.00;20.10;;;9.00;99.90;;;;;;5072119;28;20492;-73
2022/01/10 12:13:06;;;;;;;19.83;18.33;;;9.00;99.90;;;;;;5073401;28;20450;-72
2022/01/10 12:15:33;;;;;;;20.73;19.03;;;9.40;99.90;;;;;;5071250;28;20451;-72
2022/01/10 12:18:00;;;;;;;22.23;20.13;;;9.40;99.90;;;;;;5070900;28;20451;-72
2022/01/10 12:20:27;;;;;;;19.07;17.50;;;9.50;99.90;;;;;;5070755;28;20457;-72
2022/01/10 12:22:56;;;;;;;20.93;19.37;;;9.90;99.90;;;;;;5070730;28;20912;-72
2022/01/10 12:25:24;;;;;;;21.20;19.47;;;9.80;99.90;;;;;;5069644;28;20474;-72
2022/01/10 12:27:54;;;;;;;20.43;18.93;;;10.10;99.90;;;;;;5070938;28;20455;-72
2022/01/10 12:30:21;;;;;;;21.90;19.83;;;10.00;99.90;;;;;;5070939;28;20450;-73
2022/01/10 12:32:48;;;;;;;19.90;18.43;;;10.20;99.90;;;;;;5070690;28;20486;-73
2022/01/10 12:35:17;;;;;;;20.23;18.97;;;9.90;99.90;;;;;;5070400;28;20958;-71
2022/01/10 12:37:44;;;;;;;21.07;19.37;;;9.60;99.90;;;;;;5070406;28;20444;-73
2022/01/10 12:40:15;;;;;;;21.97;19.47;;;9.70;99.90;;;;;;5070225;28;20863;-72
2022/01/10 12:42:48;;;;;;;18.23;16.70;;;9.80;99.90;;;;;;5070333;28;20454;-72
2022/01/10 12:45:15;;;;;;;18.90;17.63;;;9.90;99.90;;;;;;5070237;28;20963;-73
2022/01/10 12:47:45;;;;;;;21.17;19.70;;;9.60;99.90;;;;;;5070099;28;20454;-72
2022/01/10 12:50:12;;;;;;;19.80;18.30;;;9.50;99.90;;;;;;5070602;28;20479;-72
2022/01/10 12:52:40;;;;;;;20.07;18.50;;;9.40;99.90;;;;;;5069949;28;20490;-72
2022/01/10 12:55:08;;;;;;;22.20;20.13;;;9.20;99.90;;;;;;5069982;28;20467;-72
2022/01/10 12:57:36;;;;;;;21.60;19.43;;;8.80;99.90;;;;;;5070320;28;20447;-72
2022/01/10 13:00:06;;;;;;;22.40;20.40;;;8.80;99.90;;;;;;5070185;28;20482;-72
2022/01/10 13:02:34;;;;;;;20.40;18.90;;;8.80;99.90;;;;;;5070255;28;20467;-72
2022/01/10 13:05:05;;;;;;;23.10;21.10;;;8.60;99.90;;;;;;5069881;28;20451;-72
2022/01/10 13:07:32;;;;;;;22.63;20.77;;;8.30;99.90;;;;;;5070195;28;20530;-72
2022/01/10 13:10:05;;;;;;;21.50;19.80;;;8.50;99.90;;;;;;5069693;28;20470;-72
2022/01/10 13:12:33;;;;;;;22.50;20.63;;;8.30;99.90;;;;;;5069854;28;20579;-72
2022/01/10 13:15:10;;;;;;;21.87;19.93;;;8.10;99.90;;;;;;5069971;28;20729;-72
2022/01/10 13:17:38;;;;;;;22.30;20.10;;;8.20;99.90;;;;;;5069861;28;20450;-72
2022/01/10 13:20:08;;;;;;;22.03;20.23;;;8.30;99.90;;;;;;5070009;28;20478;-73
2022/01/10 13:22:37;;;;;;;26.30;20.53;;;8.10;99.90;;;;;;5070166;28;20444;-73
2022/01/10 13:25:08;;;;;;;22.90;20.87;;;8.10;99.90;;;;;;5069948;28;20824;-73
2022/01/10 13:27:36;;;;;;;23.23;21.13;;;8.10;99.90;;;;;;5069918;28;20447;-72
2022/01/10 13:30:15;;;;;;;22.53;20.87;;;8.10;99.90;;;;;;5069837;28;20556;-73
2022/01/10 13:32:45;;;;;;;31.13;24.70;;;8.20;99.90;;;;;;5068951;28;20864;-73
2022/01/10 13:35:15;;;;;;;22.73;19.97;;;8.20;99.90;;;;;;5069234;28;20450;-74
2022/01/10 13:37:44;;;;;;;25.43;22.27;;;8.30;99.90;;;;;;5069227;28;20462;-72
2022/01/10 13:40:14;;;;;;;23.87;21.70;;;8.30;99.90;;;;;;5069333;28;20797;-74
2022/01/10 13:42:47;;;;;;;24.30;21.97;;;8.20;99.90;;;;;;5069321;28;20969;-74
2022/01/10 13:45:16;;;;;;;24.70;22.67;;;8.20;99.90;;;;;;5069575;28;20455;-74
2022/01/10 13:47:55;;;;;;;24.10;21.60;;;8.30;99.90;;;;;;5069268;28;20473;-73
2022/01/10 13:50:26;;;;;;;24.60;22.03;;;7.90;99.90;;;;;;5069475;28;20446;-74
2022/01/10 13:53:08;;;;;;;25.13;22.80;;;7.80;99.90;;;;;;5069216;28;20848;-74
2022/01/10 13:55:37;;;;;;;26.83;24.00;;;8.00;99.90;;;;;;5069675;28;20450;-73
2022/01/10 13:58:07;;;;;;;25.33;23.00;;;8.00;99.90;;;;;;5069642;28;20454;-74
2022/01/10 14:00:38;;;;;;;25.10;22.40;;;8.00;99.90;;;;;;5069592;28;20554;-74
2022/01/10 14:03:05;;;;;;;23.03;21.33;;;8.00;99.90;;;;;;5069262;28;20978;-74
2022/01/10 14:05:33;;;;;;;25.13;22.90;;;8.00;99.90;;;;;;5069247;28;20458;-74
2022/01/10 14:08:01;;;;;;;24.47;22.40;;;8.00;99.90;;;;;;5069193;28;20447;-74
2022/01/10 14:10:28;;;;;;;24.40;22.00;;;8.00;99.90;;;;;;5069035;28;20455;-74
2022/01/10 14:12:57;;;;;;;25.17;22.87;;;8.00;99.90;;;;;;5069143;28;20519;-74
2022/01/10 14:15:24;;;;;;;26.30;23.60;;;7.70;99.90;;;;;;5069037;28;20448;-73
2022/01/10 14:17:54;;;;;;;24.37;22.07;;;7.60;99.90;;;;;;5069301;28;20455;-74
2022/01/10 14:20:21;;;;;;;24.27;22.07;;;7.50;99.90;;;;;;5069382;28;20506;-74
2022/01/10 14:22:50;;;;;;;25.40;22.90;;;7.30;99.90;;;;;;5069273;28;20453;-74
2022/01/10 14:25:18;;;;;;;25.67;22.93;;;7.20;99.90;;;;;;5069159;28;20592;-74
2022/01/10 14:27:45;;;;;;;25.50;23.27;;;7.20;99.90;;;;;;5069011;28;20477;-74
2022/01/10 14:30:12;;;;;;;23.80;21.90;;;7.10;99.90;;;;;;5068949;28;20756;-73
2022/01/10 14:32:39;;;;;;;25.40;22.20;;;7.00;99.90;;;;;;5068831;28;20497;-73
2022/01/10 14:35:09;;;;;;;24.67;22.60;;;7.00;99.90;;;;;;5069153;28;20447;-74
2022/01/10 14:37:35;;;;;;;25.40;22.73;;;7.00;99.90;;;;;;5069188;28;20450;-73
2022/01/10 14:40:03;;;;;;;24.93;22.87;;;6.90;99.90;;;;;;5069134;28;20451;-74
2022/01/10 14:42:30;;;;;;;25.03;22.70;;;6.80;99.90;;;;;;5068860;28;20450;-74
2022/01/10 14:44:57;;;;;;;26.73;24.00;;;6.70;99.90;;;;;;5068705;28;21018;-74
2022/01/10 14:47:24;;;;;;;28.83;25.50;;;6.70;99.90;;;;;;5069428;28;20448;-73
2022/01/10 14:49:51;;;;;;;24.13;21.70;;;6.70;99.90;;;;;;5072717;28;20457;-72
2022/01/10 14:52:19;;;;;;;27.40;24.47;;;6.70;99.90;;;;;;5072769;28;20490;-73
2022/01/10 14:54:46;;;;;;;26.67;24.20;;;6.70;99.90;;;;;;5072580;28;20545;-73
2022/01/10 14:57:13;;;;;;;32.63;23.90;;;6.50;99.90;;;;;;5072289;28;21076;-73
2022/01/10 14:59:39;;;;;;;26.30;23.70;;;6.40;99.90;;;;;;5072312;28;20446;-72
2022/01/10 15:02:06;;;;;;;24.40;21.90;;;6.50;99.90;;;;;;5072525;28;20443;-73
2022/01/10 15:04:33;;;;;;;25.33;22.70;;;6.40;99.90;;;;;;5072654;28;20453;-73
2022/01/10 15:06:59;;;;;;;23.57;21.37;;;6.40;99.90;;;;;;5072286;28;20450;-73
2022/01/10 15:09:27;;;;;;;27.60;22.17;;;6.30;99.90;;;;;;5072193;28;20449;-73
2022/01/10 15:11:54;;;;;;;23.20;20.70;;;6.20;99.90;;;;;;5071756;28;20837;-73
2022/01/10 15:14:21;;;;;;;24.47;22.03;;;6.20;99.90;;;;;;5072532;28;20468;-74
2022/01/10 15:16:48;;;;;;;25.83;23.50;;;6.10;99.90;;;;;;5072451;28;20448;-72
2022/01/10 15:19:14;;;;;;;24.67;22.27;;;6.10;99.90;;;;;;5072056;28;21050;-73
2022/01/10 15:21:42;;;;;;;26.83;24.23;;;6.20;99.90;;;;;;5072093;28;20447;-73
2022/01/10 15:24:10;;;;;;;23.00;20.80;;;6.20;99.90;;;;;;5071802;28;20822;-72
2022/01/10 15:26:38;;;;;;;22.53;20.50;;;6.20;99.90;;;;;;5071960;28;20458;-72
2022/01/10 15:29:07;;;;;;;23.93;21.60;;;6.20;99.90;;;;;;5072181;28;20447;-73
2022/01/10 15:31:34;;;;;;;22.30;20.17;;;6.10;99.90;;;;;;5072127;28;20486;-73
2022/01/10 15:34:01;;;;;;;21.93;19.60;;;6.10;99.90;;;;;;5071536;28;20489;-73
2022/01/10 15:36:28;;;;;;;22.13;20.33;;;6.00;99.90;;;;;;5071652;28;20445;-73
2022/01/10 15:38:54;;;;;;;21.40;19.70;;;6.00;99.90;;;;;;5071698;28;20457;-73
2022/01/10 15:41:22;;;;;;;23.90;21.20;;;6.00;99.90;;;;;;5071904;28;20471;-73
2022/01/10 15:43:50;;;;;;;23.90;21.57;;;6.00;99.90;;;;;;5071879;28;20504;-74
2022/01/10 15:46:18;;;;;;;22.37;20.60;;;5.80;99.90;;;;;;5071683;28;20452;-73
2022/01/10 15:48:45;;;;;;;22.70;20.80;;;5.80;99.90;;;;;;5071257;28;20456;-73
2022/01/10 15:51:12;;;;;;;21.67;19.93;;;5.70;99.90;;;;;;5071497;28;20463;-73
2022/01/10 15:53:39;;;;;;;21.63;19.23;;;5.60;99.90;;;;;;5071430;28;20493;-73
2022/01/10 15:56:07;;;;;;;25.53;22.93;;;5.50;99.90;;;;;;5071817;28;20447;-73
2022/01/10 15:58:35;;;;;;;25.37;22.77;;;5.40;99.90;;;;;;5071582;28;20802;-73
2022/01/10 16:01:04;;;;;;;24.23;21.73;;;5.40;99.90;;;;;;5071370;28;20990;-73
2022/01/10 16:03:30;;;;;;;24.40;22.30;;;5.30;99.90;;;;;;5071169;28;20478;-73
2022/01/10 16:05:57;;;;;;;23.43;21.57;;;5.20;99.90;;;;;;5071092;28;20459;-73
2022/01/10 16:08:24;;;;;;;24.70;22.30;;;5.10;99.90;;;;;;5071225;28;20454;-73
2022/01/10 16:10:51;;;;;;;26.43;23.33;;;5.10;99.90;;;;;;5071144;28;20480;-74
2022/01/10 16:13:19;;;;;;;24.83;22.43;;;5.00;99.90;;;;;;5071164;28;20484;-73
2022/01/10 16:15:46;;;;;;;23.77;21.70;;;4.90;99.90;;;;;;5071015;28;20534;-73
2022/01/10 16:18:14;;;;;;;22.37;20.23;;;4.90;99.90;;;;;;5070907;28;20455;-73
2022/01/10 16:20:41;;;;;;;23.73;21.37;;;4.80;99.90;;;;;;5070771;28;20448;-73
2022/01/10 16:23:09;;;;;;;24.03;21.80;;;4.70;99.90;;;;;;5070647;28;20447;-73
2022/01/10 16:25:36;;;;;;;24.00;21.70;;;4.70;99.90;;;;;;5071029;28;20455;-73
2022/01/10 16:28:03;;;;;;;27.17;24.20;;;4.70;99.90;;;;;;5071033;28;20451;-74
2022/01/10 16:30:30;;;;;;;24.57;22.40;;;4.70;99.90;;;;;;5070713;28;20451;-72
2022/01/10 16:32:57;;;;;;;27.20;24.27;;;4.60;99.90;;;;;;5070556;28;20521;-74
2022/01/10 16:35:26;;;;;;;26.33;23.93;;;4.50;99.90;;;;;;5070464;28;20455;-73
2022/01/10 16:37:53;;;;;;;28.00;25.23;;;4.60;99.90;;;;;;5070680;28;20455;-73
2022/01/10 16:40:20;;;;;;;29.00;26.30;;;4.50;99.90;;;;;;5070616;28;20541;-72
2022/01/10 16:42:47;;;;;;;30.20;27.10;;;4.50;99.90;;;;;;5070545;28;20448;-72
2022/01/10 16:45:14;;;;;;;29.20;26.70;;;4.50;99.90;;;;;;5070233;28;20828;-73
2022/01/10 16:47:41;;;;;;;28.83;25.90;;;4.40;99.90;;;;;;5070314;28;20451;-72
2022/01/10 16:50:10;;;;;;;29.40;26.60;;;4.40;99.90;;;;;;5070179;28;20814;-73
2022/01/10 16:52:38;;;;;;;27.43;24.83;;;4.30;99.90;;;;;;5070207;28;20487;-73
2022/01/10 16:55:05;;;;;;;32.70;29.50;;;4.40;99.90;;;;;;5070445;28;20455;-73
2022/01/10 16:57:32;;;;;;;33.50;29.90;;;4.30;99.90;;;;;;5070341;28;20474;-73
2022/01/10 17:00:00;;;;;;;34.03;28.60;;;4.30;99.90;;;;;;5069959;28;20455;-73
2022/01/10 17:02:27;;;;;;;34.47;30.70;;;4.30;99.90;;;;;;5069872;28;20470;-73
2022/01/10 17:04:54;;;;;;;33.27;29.80;;;4.20;99.90;;;;;;5069757;28;20958;-73
2022/01/10 17:07:22;;;;;;;36.07;32.37;;;4.10;99.90;;;;;;5070256;28;20451;-72
2022/01/10 17:09:54;;;;;;;37.57;33.73;;;4.00;99.90;;;;;;5069619;28;20462;-72
2022/01/10 17:12:22;;;;;;;42.10;31.53;;;4.00;99.90;;;;;;5069819;28;20517;-74
2022/01/10 17:14:49;;;;;;;35.83;32.03;;;4.00;99.90;;;;;;5070094;28;20493;-74
2022/01/10 17:17:17;;;;;;;36.83;30.70;;;3.90;99.90;;;;;;5069685;28;20447;-73
2022/01/10 17:19:45;;;;;;;39.73;35.57;;;3.90;99.90;;;;;;5069624;28;20494;-73
2022/01/10 17:22:11;;;;;;;34.90;31.30;;;3.80;99.90;;;;;;5069728;28;20527;-75
2022/01/10 17:24:38;;;;;;;39.47;32.33;;;3.80;99.90;;;;;;5069547;28;20953;-72
2022/01/10 17:27:06;;;;;;;35.93;32.03;;;3.70;99.90;;;;;;5069846;28;20459;-72
2022/01/10 17:29:33;;;;;;;36.07;31.43;;;3.60;99.90;;;;;;5069748;28;20447;-72
2022/01/10 17:32:00;;;;;;;37.63;32.50;;;3.70;99.90;;;;;;5069437;28;20494;-72
2022/01/10 17:34:27;;;;;;;38.43;31.87;;;3.50;99.90;;;;;;5069658;28;20495;-72
2022/01/10 17:36:54;;;;;;;37.70;33.80;;;3.40;99.90;;;;;;5069455;28;20818;-71
2022/01/10 17:39:21;;;;;;;44.03;37.93;;;3.30;99.90;;;;;;5069615;28;21100;-72
2022/01/10 17:41:48;;;;;;;38.33;32.80;;;3.30;99.90;;;;;;5069766;28;20445;-73
2022/01/10 17:44:16;;;;;;;38.60;34.60;;;3.40;99.90;;;;;;5069326;28;20485;-72
2022/01/10 17:46:45;;;;;;;42.17;38.00;;;3.40;99.90;;;;;;5069288;28;20442;-73
2022/01/10 17:49:15;;;;;;;39.70;35.70;;;3.30;99.90;;;;;;5069374;28;20450;-72
2022/01/10 17:51:48;;;;;;;41.30;35.50;;;3.40;99.90;;;;;;5069308;28;20635;-72
2022/01/10 17:54:16;;;;;;;40.97;36.57;;;3.40;99.90;;;;;;5069106;28;20542;-71
2022/01/10 17:56:43;;;;;;;40.00;36.07;;;3.40;99.90;;;;;;5069250;28;20451;-72
2022/01/10 17:59:10;;;;;;;51.20;36.07;;;3.30;99.90;;;;;;5069252;28;21099;-72
